createdAt,value
2018-07-02T00:02:26.562Z,1.90
2018-07-02T00:04:54.052Z,1.70
2018-07-02T00:07:23.542Z,1.85
2018-07-02T00:09:51.506Z,1.87
2018-07-02T00:12:19.928Z,1.70
2018-07-02T00:14:48.334Z,1.98
2018-07-02T00:17:16.015Z,2.60
2018-07-02T00:19:43.474Z,2.12
2018-07-02T00:22:11.335Z,1.92
2018-07-02T00:24:38.893Z,2.02
2018-07-02T00:27:06.523Z,2.12
2018-07-02T00:29:34.013Z,1.90
2018-07-02T00:32:01.394Z,1.82
2018-07-02T00:34:28.970Z,2.10
2018-07-02T00:36:56.381Z,1.80
2018-07-02T00:39:23.806Z,1.90
2018-07-02T00:41:51.205Z,1.85
2018-07-02T00:44:18.582Z,1.92
2018-07-02T00:46:46.007Z,2.20
2018-07-02T00:49:13.398Z,1.87
2018-07-02T00:51:40.788Z,2.10
2018-07-02T00:54:08.190Z,2.15
2018-07-02T00:56:35.589Z,1.95
2018-07-02T00:59:02.966Z,2.00
2018-07-02T01:01:30.371Z,1.92
2018-07-02T01:03:59.971Z,1.90
2018-07-02T01:06:27.412Z,1.82
2018-07-02T01:08:54.829Z,1.90
2018-07-02T01:11:22.213Z,1.95
2018-07-02T01:13:50.672Z,1.62
2018-07-02T01:16:18.078Z,2.20
2018-07-02T01:18:45.860Z,1.90
2018-07-02T01:21:13.261Z,1.90
2018-07-02T01:23:40.996Z,1.80
2018-07-02T01:26:08.594Z,1.75
2018-07-02T01:28:36.169Z,1.80
2018-07-02T01:31:04.279Z,2.22
2018-07-02T01:33:32.053Z,1.85
2018-07-02T01:35:59.546Z,2.22
2018-07-02T01:38:27.013Z,2.10
2018-07-02T01:40:54.547Z,1.90
2018-07-02T01:43:21.934Z,2.10
2018-07-02T01:45:49.361Z,2.00
2018-07-02T01:48:18.193Z,1.80
2018-07-02T01:50:45.692Z,1.82
2018-07-02T01:53:13.105Z,1.80
2018-07-02T01:55:40.577Z,2.02
2018-07-02T01:58:07.974Z,2.20
2018-07-02T02:00:35.409Z,1.90
2018-07-02T02:03:03.150Z,2.30
2018-07-02T02:05:30.529Z,1.85
2018-07-02T02:07:57.985Z,2.20
2018-07-02T02:10:25.393Z,2.00
2018-07-02T02:12:52.798Z,1.80
2018-07-02T02:15:20.186Z,1.98
2018-07-02T02:17:47.616Z,1.90
2018-07-02T02:20:14.999Z,1.80
2018-07-02T02:22:42.436Z,2.00
2018-07-02T02:25:09.808Z,1.70
2018-07-02T02:27:37.192Z,1.80
2018-07-02T02:30:05.122Z,2.00
2018-07-02T02:32:32.652Z,1.87
2018-07-02T02:35:00.057Z,1.60
2018-07-02T02:37:27.476Z,1.82
2018-07-02T02:39:54.864Z,2.25
2018-07-02T02:42:22.235Z,1.80
2018-07-02T02:44:49.734Z,2.12
2018-07-02T02:47:17.158Z,1.70
2018-07-02T02:49:44.545Z,2.10
2018-07-02T02:52:18.393Z,3.10
2018-07-02T02:54:45.816Z,2.40
2018-07-02T02:57:13.667Z,3.80
2018-07-02T02:59:41.076Z,3.50
2018-07-02T03:02:08.721Z,3.42
2018-07-02T03:04:36.149Z,2.80
2018-07-02T03:07:04.306Z,2.70
2018-07-02T03:09:31.870Z,2.20
2018-07-02T03:11:59.231Z,2.10
2018-07-02T03:14:26.630Z,2.12
2018-07-02T03:16:55.656Z,2.10
2018-07-02T03:19:23.070Z,1.80
2018-07-02T03:21:50.425Z,2.60
2018-07-02T03:24:17.830Z,1.98
2018-07-02T03:26:45.241Z,2.40
2018-07-02T03:29:12.682Z,2.15
2018-07-02T03:31:40.108Z,2.35
2018-07-02T03:34:07.569Z,2.35
2018-07-02T03:36:34.958Z,2.27
2018-07-02T03:39:04.140Z,2.00
2018-07-02T03:41:33.495Z,2.65
2018-07-02T03:44:00.944Z,2.17
2018-07-02T03:46:28.354Z,2.30
2018-07-02T03:48:55.745Z,2.70
2018-07-02T03:51:23.135Z,2.72
2018-07-02T03:53:50.526Z,2.75
2018-07-02T03:56:17.921Z,2.27
2018-07-02T03:58:45.291Z,2.33
2018-07-02T04:01:12.713Z,2.42
2018-07-02T04:03:40.146Z,2.50
2018-07-02T04:06:07.561Z,2.62
2018-07-02T04:08:34.957Z,2.40
2018-07-02T04:11:02.336Z,2.15
2018-07-02T04:13:29.741Z,2.45
2018-07-02T04:15:57.111Z,2.70
2018-07-02T04:18:24.515Z,2.35
2018-07-02T04:20:51.893Z,2.35
2018-07-02T04:23:19.308Z,2.27
2018-07-02T04:25:46.823Z,2.00
2018-07-02T04:28:14.184Z,2.47
2018-07-02T04:30:41.610Z,2.40
2018-07-02T04:33:09.034Z,2.58
2018-07-02T04:35:36.405Z,2.20
2018-07-02T04:38:03.782Z,2.25
2018-07-02T04:40:31.165Z,2.25
2018-07-02T04:42:58.936Z,2.12
2018-07-02T04:45:25.955Z,2.47
2018-07-02T04:47:53.348Z,2.30
2018-07-02T04:50:20.845Z,2.95
2018-07-02T04:52:48.247Z,2.47
2018-07-02T04:55:15.684Z,2.60
2018-07-02T04:57:43.134Z,2.08
2018-07-02T05:00:10.672Z,1.80
2018-07-02T05:02:38.025Z,2.35
2018-07-02T05:05:05.443Z,2.10
2018-07-02T05:07:32.814Z,2.10
2018-07-02T05:10:00.169Z,2.08
2018-07-02T05:12:27.710Z,1.90
2018-07-02T05:14:55.054Z,2.00
2018-07-02T05:17:22.374Z,1.85
2018-07-02T05:19:49.777Z,2.08
2018-07-02T05:22:17.162Z,2.10
2018-07-02T05:24:44.792Z,2.30
2018-07-02T05:27:12.149Z,2.63
2018-07-02T05:29:39.555Z,2.87
2018-07-02T05:32:06.930Z,2.13
2018-07-02T05:34:34.339Z,2.40
2018-07-02T05:37:01.718Z,2.20
2018-07-02T05:39:29.108Z,2.40
2018-07-02T05:41:56.516Z,2.73
2018-07-02T05:44:23.885Z,2.60
2018-07-02T05:46:51.254Z,2.60
2018-07-02T05:49:18.612Z,2.70
2018-07-02T05:51:45.980Z,2.83
2018-07-02T05:54:13.397Z,2.80
2018-07-02T05:56:40.830Z,3.03
2018-07-02T05:59:08.206Z,3.40
2018-07-02T06:01:35.621Z,3.00
2018-07-02T06:04:03.015Z,2.70
2018-07-02T06:06:30.347Z,3.33
2018-07-02T06:08:57.754Z,3.07
2018-07-02T06:11:25.222Z,2.90
2018-07-02T06:13:52.681Z,3.30
2018-07-02T06:16:20.047Z,3.33
2018-07-02T06:18:47.418Z,3.27
2018-07-02T06:21:14.797Z,3.37
2018-07-02T06:23:42.290Z,3.20
2018-07-02T06:26:09.689Z,3.17
2018-07-02T06:28:37.232Z,3.07
2018-07-02T06:31:04.962Z,3.07
2018-07-02T06:33:32.379Z,3.43
2018-07-02T06:35:59.886Z,2.83
2018-07-02T06:38:27.329Z,3.27
2018-07-02T06:40:54.706Z,3.97
2018-07-02T06:43:22.107Z,3.73
2018-07-02T06:45:49.478Z,3.63
2018-07-02T06:48:16.874Z,2.93
2018-07-02T06:50:44.262Z,3.30
2018-07-02T06:53:11.661Z,3.20
2018-07-02T06:55:39.139Z,3.30
2018-07-02T06:58:06.528Z,3.63
2018-07-02T07:00:33.926Z,3.37
2018-07-02T07:03:01.317Z,3.63
2018-07-02T07:05:28.704Z,3.50
2018-07-02T07:07:56.087Z,3.30
2018-07-02T07:10:23.502Z,3.67
2018-07-02T07:12:50.917Z,3.20
2018-07-02T07:15:18.396Z,3.80
2018-07-02T07:17:45.814Z,4.30
2018-07-02T07:20:13.203Z,3.70
2018-07-02T07:22:40.577Z,4.30
2018-07-02T07:25:08.036Z,3.30
2018-07-02T07:27:35.617Z,3.80
2018-07-02T07:30:03.025Z,3.70
2018-07-02T07:32:30.733Z,3.67
2018-07-02T07:34:58.142Z,3.70
2018-07-02T07:37:25.818Z,3.43
2018-07-02T07:39:53.178Z,3.20
2018-07-02T07:42:20.530Z,3.27
2018-07-02T07:44:47.929Z,3.17
2018-07-02T07:47:15.383Z,3.33
2018-07-02T07:49:42.791Z,2.90
2018-07-02T07:52:10.153Z,3.23
2018-07-02T07:54:37.536Z,2.83
2018-07-02T07:57:04.997Z,3.13
2018-07-02T07:59:32.389Z,2.60
2018-07-02T08:01:59.879Z,3.17
2018-07-02T08:04:27.294Z,2.83
2018-07-02T08:06:54.642Z,2.87
2018-07-02T08:09:22.022Z,2.70
2018-07-02T08:11:49.434Z,2.70
2018-07-02T08:14:16.826Z,3.07
2018-07-02T08:16:44.242Z,3.33
2018-07-02T08:19:11.661Z,3.60
2018-07-02T08:21:39.152Z,2.70
2018-07-02T08:24:06.585Z,2.80
2018-07-02T08:26:33.942Z,3.00
2018-07-02T08:29:01.330Z,2.47
2018-07-02T08:31:28.764Z,2.90
2018-07-02T08:33:56.218Z,2.83
2018-07-02T08:36:23.593Z,2.40
2018-07-02T08:38:51.067Z,2.90
2018-07-02T08:41:18.451Z,2.97
2018-07-02T08:43:45.843Z,2.87
2018-07-02T08:46:13.261Z,2.73
2018-07-02T08:48:40.613Z,2.67
2018-07-02T08:51:08.004Z,3.40
2018-07-02T08:53:35.380Z,2.60
2018-07-02T08:56:02.814Z,2.67
2018-07-02T08:58:30.257Z,2.80
2018-07-02T09:00:57.679Z,2.83
2018-07-02T09:03:25.033Z,2.70
2018-07-02T09:05:52.451Z,2.93
2018-07-02T09:08:19.831Z,2.67
2018-07-02T09:10:47.213Z,3.20
2018-07-02T09:13:14.648Z,2.73
2018-07-02T09:15:42.024Z,3.00
2018-07-02T09:18:09.428Z,2.93
2018-07-02T09:20:36.817Z,3.00
2018-07-02T09:23:04.257Z,2.70
2018-07-02T09:25:31.616Z,2.67
2018-07-02T09:27:58.972Z,2.97
2018-07-02T09:30:26.359Z,2.97
2018-07-02T09:32:53.703Z,2.97
2018-07-02T09:35:21.094Z,2.57
2018-07-02T09:37:48.536Z,2.40
2018-07-02T09:40:15.932Z,2.47
2018-07-02T09:42:43.320Z,2.80
2018-07-02T09:45:11.184Z,3.33
2018-07-02T09:47:38.559Z,2.80
2018-07-02T09:50:05.975Z,2.90
2018-07-02T09:52:33.498Z,2.40
2018-07-02T09:55:00.891Z,2.40
2018-07-02T09:57:28.266Z,2.40
2018-07-02T09:59:55.753Z,2.47
2018-07-02T10:02:23.152Z,2.30
2018-07-02T10:04:50.541Z,2.50
2018-07-02T10:07:17.935Z,2.80
2018-07-02T10:09:45.311Z,2.60
2018-07-02T10:12:12.779Z,2.60
2018-07-02T10:14:40.166Z,2.53
2018-07-02T10:17:07.624Z,2.40
2018-07-02T10:19:35.017Z,2.33
2018-07-02T10:22:02.398Z,2.23
2018-07-02T10:24:29.813Z,2.43
2018-07-02T10:26:57.169Z,2.40
2018-07-02T10:29:24.629Z,2.47
2018-07-02T10:31:52.009Z,2.40
2018-07-02T10:34:19.379Z,2.30
2018-07-02T10:36:46.776Z,2.17
2018-07-02T10:39:14.143Z,2.73
2018-07-02T10:41:41.528Z,2.60
2018-07-02T10:44:08.929Z,2.33
2018-07-02T10:46:36.374Z,2.80
2018-07-02T10:49:03.753Z,2.00
2018-07-02T10:51:31.142Z,2.43
2018-07-02T10:53:58.503Z,2.33
2018-07-02T10:56:25.931Z,2.20
2018-07-02T10:58:53.351Z,2.40
2018-07-02T11:01:20.700Z,2.33
2018-07-02T11:03:48.216Z,2.23
2018-07-02T11:06:15.622Z,2.30
2018-07-02T11:08:42.989Z,2.63
2018-07-02T11:11:10.439Z,2.50
2018-07-02T11:13:37.822Z,2.50
2018-07-02T11:16:05.271Z,2.50
2018-07-02T11:18:32.615Z,2.67
2018-07-02T11:20:59.997Z,2.23
2018-07-02T11:23:27.391Z,2.80
2018-07-02T11:25:54.771Z,2.50
2018-07-02T11:28:22.182Z,2.20
2018-07-02T11:30:49.585Z,2.20
2018-07-02T11:33:16.968Z,2.10
2018-07-02T11:35:44.403Z,2.33
2018-07-02T11:38:11.834Z,2.50
2018-07-02T11:40:39.228Z,2.20
2018-07-02T11:43:06.628Z,2.40
2018-07-02T11:45:34.022Z,2.40
2018-07-02T11:48:01.389Z,3.33
2018-07-02T11:50:28.768Z,2.40
2018-07-02T11:52:56.127Z,2.50
2018-07-02T11:55:23.495Z,2.33
2018-07-02T11:57:53.229Z,2.30
2018-07-02T12:00:20.607Z,2.00
2018-07-02T12:02:47.966Z,2.30
2018-07-02T12:05:15.356Z,2.57
2018-07-02T12:07:42.733Z,2.50
2018-07-02T12:10:10.682Z,2.07
2018-07-02T12:12:38.136Z,2.10
2018-07-02T12:15:05.683Z,2.10
2018-07-02T12:17:33.042Z,2.17
2018-07-02T12:20:00.427Z,2.30
2018-07-02T12:22:27.819Z,2.30
2018-07-02T12:24:55.210Z,2.10
2018-07-02T12:27:22.686Z,2.30
2018-07-02T12:29:50.959Z,2.83
2018-07-02T12:32:18.398Z,2.40
2018-07-02T12:34:46.024Z,2.20
2018-07-02T12:37:13.512Z,2.10
2018-07-02T12:39:40.909Z,2.20
2018-07-02T12:42:08.273Z,2.00
2018-07-02T12:44:35.639Z,2.27
2018-07-02T12:47:03.032Z,2.40
2018-07-02T12:49:30.590Z,2.20
2018-07-02T12:51:57.965Z,2.30
2018-07-02T12:54:25.393Z,2.47
2018-07-02T12:56:52.871Z,2.43
2018-07-02T12:59:20.226Z,2.10
2018-07-02T13:01:47.618Z,2.10
2018-07-02T13:04:15.023Z,2.13
2018-07-02T13:06:42.374Z,2.30
2018-07-02T13:09:11.340Z,2.27
2018-07-02T13:11:39.011Z,2.20
2018-07-02T13:14:06.705Z,2.33
2018-07-02T13:16:34.051Z,2.13
2018-07-02T13:19:01.440Z,2.53
2018-07-02T13:21:28.782Z,2.10
2018-07-02T13:23:56.173Z,2.33
2018-07-02T13:26:23.503Z,2.40
2018-07-02T13:28:50.907Z,2.70
2018-07-02T13:31:18.293Z,2.73
2018-07-02T13:33:45.861Z,2.50
2018-07-02T13:36:13.078Z,2.60
2018-07-02T13:38:40.490Z,2.57
2018-07-02T13:41:07.877Z,2.80
2018-07-02T13:43:35.227Z,2.77
2018-07-02T13:46:02.677Z,2.57
2018-07-02T13:48:30.055Z,2.70
2018-07-02T13:50:57.430Z,2.30
2018-07-02T13:53:24.810Z,2.60
2018-07-02T13:55:52.159Z,3.00
2018-07-02T13:58:19.534Z,2.43
2018-07-02T14:00:47.003Z,2.53
2018-07-02T14:03:14.446Z,2.70
2018-07-02T14:05:41.808Z,2.70
2018-07-02T14:08:09.214Z,2.10
2018-07-02T14:10:36.616Z,2.90
2018-07-02T14:13:04.570Z,2.90
2018-07-02T14:15:32.889Z,2.60
2018-07-02T14:18:00.282Z,2.77
2018-07-02T14:20:27.651Z,2.50
2018-07-02T14:22:55.092Z,2.60
2018-07-02T14:25:22.474Z,2.60
2018-07-02T14:27:49.862Z,2.50
2018-07-02T14:30:17.272Z,2.53
2018-07-02T14:32:44.668Z,2.87
2018-07-02T14:35:12.075Z,2.70
2018-07-02T14:37:39.448Z,3.00
2018-07-02T14:40:06.888Z,2.87
2018-07-02T14:42:34.616Z,2.60
2018-07-02T14:45:02.317Z,2.70
2018-07-02T14:47:29.775Z,2.23
2018-07-02T14:49:57.172Z,3.00
2018-07-02T14:52:24.664Z,2.57
2018-07-02T14:54:52.017Z,2.40
2018-07-02T14:57:19.391Z,2.60
2018-07-02T14:59:46.750Z,2.50
2018-07-02T15:02:14.268Z,2.43
2018-07-02T15:04:41.709Z,2.60
2018-07-02T15:07:09.074Z,2.57
2018-07-02T15:09:36.440Z,2.70
2018-07-02T15:12:03.862Z,2.90
2018-07-02T15:14:31.220Z,2.50
2018-07-02T15:16:58.581Z,2.50
2018-07-02T15:19:26.484Z,2.70
2018-07-02T15:21:54.138Z,2.50
2018-07-02T15:24:21.488Z,2.77
2018-07-02T15:26:48.834Z,2.70
2018-07-02T15:29:16.188Z,3.00
2018-07-02T15:31:43.540Z,3.00
2018-07-02T15:34:11.017Z,2.97
2018-07-02T15:36:38.427Z,2.90
2018-07-02T15:39:07.181Z,3.53
2018-07-02T15:41:34.646Z,3.00
2018-07-02T15:44:02.021Z,2.40
2018-07-02T15:46:29.373Z,2.87
2018-07-02T15:48:56.784Z,3.37
2018-07-02T15:51:24.218Z,2.97
2018-07-02T15:53:51.580Z,2.53
2018-07-02T15:56:18.936Z,2.80
2018-07-02T15:58:46.258Z,2.80
2018-07-02T16:01:13.691Z,2.80
2018-07-02T16:03:41.021Z,3.27
2018-07-02T16:06:08.395Z,3.03
2018-07-02T16:08:35.810Z,2.73
2018-07-02T16:11:03.191Z,3.03
2018-07-02T16:13:30.537Z,2.60
2018-07-02T16:15:58.268Z,2.80
2018-07-02T16:18:25.915Z,3.00
2018-07-02T16:20:53.205Z,2.70
2018-07-02T16:23:20.606Z,2.77
2018-07-02T16:25:47.952Z,3.10
2018-07-02T16:28:15.305Z,2.73
2018-07-02T16:30:42.721Z,2.80
2018-07-02T16:33:10.322Z,2.90
2018-07-02T16:35:37.892Z,2.70
2018-07-02T16:38:05.410Z,3.00
2018-07-02T16:40:32.790Z,2.80
2018-07-02T16:43:00.121Z,2.90
2018-07-02T16:45:27.503Z,2.67
2018-07-02T16:47:54.915Z,2.90
2018-07-02T16:50:22.242Z,2.60
2018-07-02T16:52:49.591Z,2.37
2018-07-02T16:55:16.963Z,2.50
2018-07-02T16:57:44.314Z,2.83
2018-07-02T17:00:11.694Z,3.03
2018-07-02T17:02:39.088Z,2.70
2018-07-02T17:05:06.648Z,2.80
2018-07-02T17:07:34.091Z,2.50
2018-07-02T17:10:01.479Z,2.60
2018-07-02T17:12:28.878Z,2.60
2018-07-02T17:14:56.279Z,2.70
2018-07-02T17:17:23.713Z,2.37
2018-07-02T17:19:51.094Z,2.77
2018-07-02T17:22:18.534Z,2.80
2018-07-02T17:24:45.941Z,2.80
2018-07-02T17:27:13.310Z,2.80
2018-07-02T17:29:40.714Z,2.83
2018-07-02T17:32:08.138Z,2.83
2018-07-02T17:34:35.519Z,2.60
2018-07-02T17:37:02.906Z,2.50
2018-07-02T17:39:30.309Z,2.27
2018-07-02T17:41:57.689Z,2.30
2018-07-02T17:44:25.103Z,2.70
2018-07-02T17:46:52.506Z,2.53
2018-07-02T17:49:19.849Z,3.00
2018-07-02T17:51:47.224Z,3.37
2018-07-02T17:54:14.603Z,2.40
2018-07-02T17:56:41.958Z,2.67
2018-07-02T17:59:09.498Z,3.00
2018-07-02T18:01:36.912Z,2.30
2018-07-02T18:04:04.516Z,2.40
2018-07-02T18:06:31.920Z,2.47
2018-07-02T18:08:59.318Z,2.60
2018-07-02T18:11:26.687Z,2.40
2018-07-02T18:13:54.068Z,2.87
2018-07-02T18:16:21.427Z,2.63
2018-07-02T18:18:48.851Z,2.77
2018-07-02T18:21:16.218Z,2.87
2018-07-02T18:23:43.630Z,2.73
2018-07-02T18:26:11.038Z,2.70
2018-07-02T18:28:38.639Z,3.00
2018-07-02T18:31:06.026Z,2.40
2018-07-02T18:33:33.391Z,2.50
2018-07-02T18:36:01.011Z,2.20
2018-07-02T18:38:28.413Z,2.63
2018-07-02T18:40:55.813Z,2.77
2018-07-02T18:43:23.184Z,2.60
2018-07-02T18:45:50.580Z,2.83
2018-07-02T18:48:18.014Z,2.70
2018-07-02T18:50:45.370Z,2.90
2018-07-02T18:53:12.763Z,2.70
2018-07-02T18:55:40.147Z,2.77
2018-07-02T18:58:07.577Z,2.83
2018-07-02T19:00:34.987Z,2.87
2018-07-02T19:03:02.438Z,2.40
2018-07-02T19:05:29.862Z,2.63
2018-07-02T19:07:57.318Z,3.20
2018-07-02T19:10:24.828Z,2.70
2018-07-02T19:12:52.262Z,2.57
2018-07-02T19:15:19.670Z,2.50
2018-07-02T19:17:47.083Z,2.53
2018-07-02T19:20:14.463Z,2.90
2018-07-02T19:22:41.898Z,2.30
2018-07-02T19:25:09.765Z,2.77
2018-07-02T19:27:37.175Z,4.87
2018-07-02T19:30:04.827Z,5.50
2018-07-02T19:32:32.290Z,3.20
2018-07-02T19:34:59.694Z,3.30
2018-07-02T19:37:27.107Z,3.20
2018-07-02T19:39:54.470Z,2.70
2018-07-02T19:42:21.840Z,2.43
2018-07-02T19:44:49.281Z,2.93
2018-07-02T19:47:16.678Z,2.70
2018-07-02T19:49:44.186Z,3.00
2018-07-02T19:52:11.608Z,3.20
2018-07-02T19:54:39.043Z,2.97
2018-07-02T19:57:06.850Z,2.70
2018-07-02T19:59:34.248Z,2.80
2018-07-02T20:02:01.651Z,3.23
2018-07-02T20:04:29.035Z,2.73
2018-07-02T20:06:56.513Z,2.87
2018-07-02T20:09:24.612Z,3.03
2018-07-02T20:11:51.999Z,2.70
2018-07-02T20:14:19.395Z,3.73
2018-07-02T20:16:47.263Z,3.63
2018-07-02T20:19:14.650Z,3.50
2018-07-02T20:21:42.103Z,3.80
2018-07-02T20:24:09.562Z,3.43
2018-07-02T20:26:36.939Z,4.17
2018-07-02T20:29:04.341Z,4.50
2018-07-02T20:31:31.698Z,5.07
2018-07-02T20:33:59.105Z,5.17
2018-07-02T20:36:26.557Z,5.60
2018-07-02T20:38:53.964Z,5.23
2018-07-02T20:41:21.319Z,4.90
2018-07-02T20:43:48.724Z,5.77
2018-07-02T20:46:16.104Z,5.00
2018-07-02T20:48:43.509Z,5.57
2018-07-02T20:51:10.873Z,4.90
2018-07-02T20:53:38.294Z,4.70
2018-07-02T20:56:05.694Z,4.43
2018-07-02T20:58:33.130Z,5.47
2018-07-02T21:01:00.494Z,4.93
2018-07-02T21:03:27.913Z,4.40
2018-07-02T21:05:55.286Z,4.60
2018-07-02T21:08:22.681Z,3.60
2018-07-02T21:10:50.683Z,4.50
2018-07-02T21:13:18.439Z,4.10
2018-07-02T21:15:46.488Z,3.80
2018-07-02T21:18:13.851Z,4.10
2018-07-02T21:20:41.235Z,4.40
2018-07-02T21:23:08.620Z,4.97
2018-07-02T21:25:36.006Z,4.60
2018-07-02T21:28:04.651Z,4.30
2018-07-02T21:30:33.135Z,4.30
2018-07-02T21:33:01.548Z,4.43
2018-07-02T21:35:29.956Z,4.47
2018-07-02T21:37:57.776Z,4.80
2018-07-02T21:40:26.151Z,4.40
2018-07-02T21:45:37.799Z,4.30
2018-07-02T21:48:05.284Z,3.83
2018-07-02T21:50:32.654Z,3.10
2018-07-02T21:53:00.070Z,3.37
2018-07-02T21:55:27.465Z,3.50
2018-07-02T21:57:54.854Z,3.47
2018-07-02T22:00:22.262Z,3.70
2018-07-02T22:02:49.773Z,3.47
2018-07-02T22:05:17.188Z,3.37
2018-07-02T22:07:44.574Z,3.73
2018-07-02T22:10:11.989Z,3.40
2018-07-02T22:12:39.451Z,3.90
2018-07-02T22:15:06.842Z,3.07
2018-07-02T22:17:34.190Z,2.87
2018-07-02T22:20:01.563Z,3.13
2018-07-02T22:22:28.909Z,3.17
2018-07-02T22:24:56.298Z,2.97
2018-07-02T22:27:23.668Z,3.00
2018-07-02T22:29:51.044Z,3.47
2018-07-02T22:32:18.425Z,3.13
2018-07-02T22:34:45.806Z,3.43
2018-07-02T22:37:13.210Z,3.20
2018-07-02T22:39:40.671Z,3.27
2018-07-02T22:42:08.056Z,3.63
2018-07-02T22:44:35.445Z,3.83
2018-07-02T22:47:02.865Z,3.43
2018-07-02T22:49:30.270Z,3.07
2018-07-02T22:51:57.648Z,2.83
2018-07-02T22:54:25.187Z,3.23
2018-07-02T22:56:52.638Z,3.40
2018-07-02T22:59:20.077Z,3.07
2018-07-02T23:01:47.483Z,3.30
2018-07-02T23:04:14.849Z,3.60
2018-07-02T23:06:42.187Z,3.33
2018-07-02T23:09:10.257Z,3.10
2018-07-02T23:11:37.646Z,3.83
2018-07-02T23:14:05.206Z,3.63
2018-07-02T23:16:32.615Z,3.63
2018-07-02T23:19:00.090Z,3.30
2018-07-02T23:21:27.450Z,3.20
2018-07-02T23:23:54.831Z,3.83
2018-07-02T23:26:22.208Z,3.60
2018-07-02T23:28:49.602Z,3.67
2018-07-02T23:31:17.026Z,3.33
2018-07-02T23:33:44.413Z,3.33
2018-07-02T23:36:11.802Z,3.47
2018-07-02T23:38:39.265Z,3.30
2018-07-02T23:41:06.663Z,3.77
2018-07-02T23:43:34.019Z,3.83
2018-07-02T23:46:01.429Z,3.90
2018-07-02T23:48:28.825Z,3.75
2018-07-02T23:50:56.234Z,4.05
2018-07-02T23:53:23.607Z,3.87
2018-07-02T23:55:50.991Z,3.85
2018-07-02T23:58:18.407Z,3.85
